Relevés horaires Bruxelles-National (Belgique)


Relevés horaires à Bruxelles-National - Vendredi 13 Mai 2022
Heure UTC1 Température [°C] Vent [km/h] Hum. [%] Pres.4 [hPa] Visi. [Km] Nébu. [octa] Préc.5 [mm] Cond.
2m. Res. Ros. Dir.2 Vit. Moy. Raf.3
23:00 12.8 12.1 4.4 OSO 9.3 9.3 13.0 57 1022.1(0.3/3h) 40 1/8 -- --
22:00 13.4 13.1 5.3 OSO 7.4 9.3 14.8 58 1022.1(0.7/3h) 40 2/8 -- --
21:00 14.5 14.4 5.0 O 7.4 13.0 14.8 53 1022(0.8/3h) 40 4/8 -- --
20:00 15.8 15.8 6.7 O 7.4 11.1 14.8 55 1021.7(0.5/3h) 30 4/8 -- --
19:00 16.8 16.6 6.0 O 11.1 13.0 14.8 49 1021.3(0.1/3h) 30 5/8 -- --
18:00 18.1 18.1 6.7 OSO 9.3 11.1 20.4 47 1021.1(-0.2/3h) 30 5/8 0/12h
--
17:00 18.6 18.6 6.9 OSO 11.1 11.1 16.7 46 1021.1(-0.6/3h) 30 5/8 -- --
16:00 18.4 18.4 6.2 OSO 9.3 11.1 16.7 45 1021.2(-0.8/3h) 30 5/8 -- --
15:00 19.1 19.1 6.6 O 9.3 11.1 20.4 44 1021.3(-0.9/3h) 30 5/8 -- --
14:00 17.9 17.9 6.1 OSO 9.3 11.1 16.7 46 1021.7(-0.5/3h) 30 6/8 -- --
13:00 17.3 17.2 6.3 O 11.1 11.1 20.4 48 1022(0.0/3h) 30 6/8 -- --
12:00 16.3 16 6.2 OSO 11.1 13.0 18.5 51 1022.2(0.4/3h) 30 7/8 0/6h
--
11:00 15.7 15.3 5.3 OSO 11.1 13.0 16.7 50 1022.3(0.6/3h) 30 7/8 -- --
10:00 15.1 14.8 5.9 OSO 9.3 11.1 18.5 54 1022(0.6/3h) 30 7/8 -- --
09:00 15.1 14.8 7.2 OSO 9.3 11.1 16.7 59 1021.8(1.0/3h) 30 5/8 -- --
08:00 13.4 12.5 7.5 O 11.1 11.1 14.8 67 1021.7(1.7/3h) 30 6/8 -- --
07:00 11.5 10.3 7.8 OSO 11.1 11.1 16.7 78 1021.5(1.6/3h) 30 6/8 -- --
06:00 10.3 9.1 7.3 OSO 9.3 11.1 16.7 82 1020.8(0.8/3h) 30 6/8 trace/12h
--
05:00 9.9 8.6 6.9 SO 9.3 11.1 14.8 82 1020.1(0.1/3h) 30 4/8 -- --
04:00 9.8 8.5 6.4 OSO 9.3 11.1 16.7 79 1019.9(-0.2/3h) 30 3/8 -- --
03:00 9.8 8.5 6.0 OSO 9.3 11.1 16.7 77 1020(-0.2/3h) 30 1/8 -- --
02:00 10.1 8.9 5.5 OSO 9.3 11.1 16.7 73 1020(-0.1/3h) 30 1/8 -- --
01:00 10.5 9.3 5.1 OSO 9.3 9.3 14.8 69 1020.1(-0.4/3h) 30 0/8 -- --

1 Coordinated Universal Time. Actuellement il est 05:00 locale et 03:00 UTC.

2 Le vent souffle depuis la direction indiquée vers la direction oposée.

3 Les rafales max. sont disponible 40 min après l'heure du relevé.

4 Pour les stations d'altitude (plus de 600m) le géopotentiel du niveau le plus proche de la pression obligatoire est indiqué.

5 Les stations disposant d'un diffuseur peuvent indiquer "trace". Cela signifie que des précipitations ont touchés le sol mais que la quantité est inférieure à 0.1 mm.

Récapitulatif de la journée
Température [°C] Vent [km/h] Ensoleillement4 [h] Precipitations totale5 [mm] Pression [Hpa]
Min1 Max.2 Moy.3 Max. Min Max.
9.5 19.4 11.2 20.4 0 h 0 min 0 1019.9 1022.3

1 Température minimale relevée entre 18:00 UTC la veille et 18:00 UTC le jour donné.

2 Température maximale relevée entre 06:00 UTC le jour donné et 06:00 UTC le lendemain.

3 Vent moyen de la journée basé sur les relevés horaires.

4 Ensoleillement en heures relevé entre 06:00 UTC la veille et 06:00 UTC le jour donné.

5 Précipitations totales tombées entre 06:00 UTC la jour donné et 06:00 UTC le lendemain.

Graphiques horaires